Dublin, TX (76446)

4:32 PM CDT on September 18, 2014 (GMT -0500)
Olam Edible Nuts | Change Station
CLOSE
Current Station
Personal Weather Station
Location: Dublin, TX
Elevation: 1424 ft
Nearby Weather Stations

Elev 1424 ft 32.09 °N, 98.41 °W | Updated 11 minutes ago

Partly Cloudy
Partly Cloudy
80.8 °F
Feels Like 86 °F
N
6.3
Wind Variable Wind from NNE

Today
High -- | Low -- °F
--% Chance of Precip.
Yesterday
High -- | Low -- °F
Precip. -- in
7:19 AM 7:35 PM
Waning Crescent, 24% visible
Pressure 29.90 in
Visibility 10.0 miles
Clouds Clear
Heat Index 86 °F
Dew Point 74 °F
Humidity 80%
Rainfall 0.00 in
Snow Depth Not available.
UV 5 out of 12
Pollen .80 out of 12
Air Quality Not available.
Flu Activity Not available.
METAR KSEP 182115Z AUTO 05006KT 10SM CLR 28/21 A2990 RMK AO2 T02830210

More Conditions Fewer Conditions

Pressure 29.90 in
Visibility 10.0 miles
Clouds Clear
Heat Index 86 °F
Dew Point 74 °F
Humidity 80%
Rainfall 0.00 in
Snow Depth Not available.
UV 5 out of 12
Pollen .80 out of 12
Air Quality Not available.
Flu Activity Not available.
METAR KSEP 182115Z AUTO 05006KT 10SM CLR 28/21 A2990 RMK AO2 T02830210

More Conditions Fewer Conditions

Nowcast | as of 3:45 PM CDT on September 18, 2014

Showers and isolated thunderstorms will continue into this evening along and south of a Bowie to Hillsboro to Athens line. Most of this activity is drifting slowly southeastward at 5 to 10 mph. Heavy rain is possible south of a Comanche to Palestine line which may contribute to localized flooding. Lightning and gusty winds will also be possible with stronger cells. Areas unaffected by rain will see skies remain mostly cloudy with temperatures in the mid 80s. Winds will be out of the east at 5 to 10 mph.

×

10-Day Weather Forecast

Almanac

Astronomy

Sep. 18, 2014 Rise Set
Actual Time 7:19 AM CDT 7:35 PM CDT
Civil Twilight 6:54 AM CDT 7:59 PM CDT
Nautical Twilight 6:26 AM CDT 8:28 PM CDT
Astronomical Twilight 5:57 AM CDT 8:57 PM CDT
Moon 2:26 AM CDT 4:14 PM CDT
Length of Visible Light 13h 05m
Length of Day
12h 16m
Tomorrow will be 1m 56s shorter.
Waning Crescent, 24% of the Moon is Illuminated
Today
Waning Crescent
Sep 24
New
Oct 1
First Quarter
Oct 8
Full
Oct 15
Last Quarter

Today's Extremes

State Highs State Lows

Community

WunderPhotos

Upload Photos

1,754,452 photos uploaded!

WunderBlogs® & News

Nearby

Snow Depth

Station Depth Elevation
No new snow has been reported.

Earthquake Activity

City Distance Mag. Time & Date
No recent earthquake activity has been reported nearby.
Minimum magnitude displayed is 2.5.

Coastal Water Temperatures

Place Temperature
No Stations Reporting

Nearby Weather Stations